createdAt,value
2018-05-18T00:00:17.781Z,99454.25
2018-05-18T00:02:45.558Z,99458.61
2018-05-18T00:05:13.335Z,99455.72
2018-05-18T00:07:40.967Z,99456.90
2018-05-18T00:10:08.873Z,99454.95
2018-05-18T00:12:36.496Z,99456.41
2018-05-18T00:15:04.163Z,99444.12
2018-05-18T00:17:32.151Z,99445.54
2018-05-18T00:19:59.917Z,99444.75
2018-05-18T00:22:31.134Z,99447.02
2018-05-18T00:24:58.910Z,99453.03
2018-05-18T00:27:26.578Z,99453.89
2018-05-18T00:29:54.176Z,99448.33
2018-05-18T00:32:30.865Z,99453.63
2018-05-18T00:34:58.511Z,99459.94
2018-05-18T00:37:26.170Z,99460.19
2018-05-18T00:39:53.941Z,99462.73
2018-05-18T00:42:25.203Z,99464.27
2018-05-18T00:44:52.881Z,99464.59
2018-05-18T00:47:20.524Z,99468.31
2018-05-18T00:49:48.132Z,99459.73
2018-05-18T00:52:15.846Z,99459.47
2018-05-18T00:54:43.657Z,99467.25
2018-05-18T00:57:11.335Z,99472.40
2018-05-18T00:59:38.969Z,99477.38
2018-05-18T01:02:07.174Z,99474.77
2018-05-18T01:04:34.815Z,99482.07
2018-05-18T01:07:02.434Z,99483.34
2018-05-18T01:09:30.543Z,99485.23
2018-05-18T01:11:58.125Z,99484.15
2018-05-18T01:16:58.658Z,99489.13
2018-05-18T01:19:26.250Z,99486.71
2018-05-18T01:21:53.844Z,99483.81
2018-05-18T01:24:22.027Z,99483.78
2018-05-18T01:26:57.063Z,99489.87
2018-05-18T01:29:25.038Z,99488.49
2018-05-18T01:31:52.681Z,99485.66
2018-05-18T01:34:20.373Z,99484.55
2018-05-18T01:36:48.209Z,99486.62
2018-05-18T01:39:15.837Z,99486.25
2018-05-18T01:41:43.503Z,99487.59
2018-05-18T01:44:12.725Z,99489.83
2018-05-18T01:46:47.496Z,99487.77
2018-05-18T01:49:15.245Z,99490.27
2018-05-18T01:51:43.820Z,99490.99
2018-05-18T01:54:11.499Z,99493.30
2018-05-18T01:56:39.327Z,99492.31
2018-05-18T01:59:07.036Z,99501.17
2018-05-18T02:01:34.618Z,99504.45
2018-05-18T02:04:02.500Z,99496.89
2018-05-18T02:06:30.147Z,99507.61
2018-05-18T02:08:57.830Z,99507.23
2018-05-18T02:11:25.521Z,99506.62
2018-05-18T02:13:53.142Z,99500.33
2018-05-18T02:16:20.815Z,99500.58
2018-05-18T02:18:48.969Z,99495.34
2018-05-18T02:21:16.581Z,99498.54
2018-05-18T02:23:44.183Z,99503.09
2018-05-18T02:26:12.340Z,99502.16
2018-05-18T02:28:39.937Z,99500.45
2018-05-18T02:31:07.583Z,99502.06
2018-05-18T02:33:35.290Z,99499.22
2018-05-18T02:36:02.942Z,99502.56
2018-05-18T02:38:30.552Z,99504.16
2018-05-18T02:40:58.935Z,99508.77
2018-05-18T02:43:26.526Z,99511.25
2018-05-18T02:45:54.178Z,99503.32
2018-05-18T02:48:24.919Z,99506.02
2018-05-18T02:50:54.676Z,99496.63
2018-05-18T02:53:30.507Z,99497.08
2018-05-18T02:55:58.105Z,99504.44
2018-05-18T02:58:25.757Z,99503.50
2018-05-18T03:00:53.468Z,99502.08
2018-05-18T03:03:21.069Z,99499.35
2018-05-18T03:05:48.704Z,99498.45
2018-05-18T03:08:22.667Z,99501.95
2018-05-18T03:10:56.807Z,99498.56
2018-05-18T03:13:24.933Z,99501.11
2018-05-18T03:15:52.512Z,99502.31
2018-05-18T03:18:20.131Z,99505.73
2018-05-18T03:20:48.333Z,99497.74
2018-05-18T03:23:16.080Z,99501.30
2018-05-18T03:25:43.728Z,99499.41
2018-05-18T03:28:11.429Z,99502.62
2018-05-18T03:30:39.013Z,99508.52
2018-05-18T03:33:06.714Z,99512.22
2018-05-18T03:35:34.423Z,99511.14
2018-05-18T03:38:02.033Z,99518.88
2018-05-18T03:40:29.676Z,99512.37
2018-05-18T03:42:57.372Z,99514.40
2018-05-18T03:45:24.991Z,99511.61
2018-05-18T03:47:52.655Z,99517.89
2018-05-18T03:50:20.808Z,99523.45
2018-05-18T03:52:48.405Z,99527.04
2018-05-18T03:55:16.099Z,99531.12
2018-05-18T03:57:43.773Z,99541.34
2018-05-18T04:00:11.416Z,99540.74
2018-05-18T04:02:50.967Z,99536.33
2018-05-18T04:05:30.227Z,99536.20
2018-05-18T04:08:10.293Z,99529.75
2018-05-18T04:10:37.885Z,99526.69
2018-05-18T04:13:05.521Z,99530.77
2018-05-18T04:15:33.334Z,99527.98
2018-05-18T04:18:01.310Z,99533.08
2018-05-18T04:20:28.882Z,99532.20
2018-05-18T04:22:56.847Z,99536.09
2018-05-18T04:25:24.420Z,99537.50
2018-05-18T04:27:52.058Z,99537.02
2018-05-18T04:30:19.837Z,99538.98
2018-05-18T04:32:47.418Z,99532.98
2018-05-18T04:35:15.504Z,99533.48
2018-05-18T04:37:43.146Z,99541.84
2018-05-18T04:40:10.756Z,99540.34
2018-05-18T04:42:38.422Z,99545.64
2018-05-18T04:45:06.267Z,99542.84
2018-05-18T04:47:33.930Z,99547.89
2018-05-18T04:50:01.608Z,99555.69
2018-05-18T04:52:29.662Z,99554.86
2018-05-18T04:54:57.325Z,99558.01
2018-05-18T04:57:25.391Z,99562.48
2018-05-18T04:59:53.143Z,99559.77
2018-05-18T05:02:27.769Z,99566.50
2018-05-18T05:04:55.649Z,99562.03
2018-05-18T05:07:25.329Z,99566.81
2018-05-18T05:09:53.015Z,99558.39
2018-05-18T05:12:20.954Z,99561.39
2018-05-18T05:14:48.728Z,99562.47
2018-05-18T05:17:16.340Z,99566.92
2018-05-18T05:19:44.597Z,99564.94
2018-05-18T05:22:12.237Z,99566.31
2018-05-18T05:24:39.860Z,99569.27
2018-05-18T05:27:07.695Z,99565.73
2018-05-18T05:29:35.460Z,99558.81
2018-05-18T05:32:04.147Z,99559.35
2018-05-18T05:34:31.775Z,99558.60
2018-05-18T05:36:59.353Z,99559.02
2018-05-18T05:39:26.984Z,99554.42
2018-05-18T05:41:54.782Z,99555.94
2018-05-18T05:44:22.408Z,99553.59
2018-05-18T05:46:50.041Z,99555.77
2018-05-18T05:49:18.758Z,99558.11
2018-05-18T05:51:46.379Z,99560.72
2018-05-18T05:54:13.968Z,99561.09
2018-05-18T05:56:41.583Z,99563.18
2018-05-18T05:59:09.197Z,99561.58
2018-05-18T06:01:36.793Z,99565.07
2018-05-18T06:04:04.781Z,99564.84
2018-05-18T06:06:32.358Z,99561.16
2018-05-18T06:08:59.937Z,99565.10
2018-05-18T06:11:27.931Z,99566.70
2018-05-18T06:13:55.585Z,99564.83
2018-05-18T06:16:23.215Z,99571.69
2018-05-18T06:18:51.034Z,99575.38
2018-05-18T06:21:18.645Z,99577.56
2018-05-18T06:23:46.264Z,99579.48
2018-05-18T06:26:13.897Z,99575.55
2018-05-18T06:28:41.546Z,99578.53
2018-05-18T06:31:09.102Z,99582.89
2018-05-18T06:33:37.223Z,99584.68
2018-05-18T06:36:04.822Z,99576.44
2018-05-18T06:38:32.417Z,99569.70
2018-05-18T06:41:00.202Z,99559.51
2018-05-18T06:43:27.787Z,99558.81
2018-05-18T06:45:55.401Z,99558.44
2018-05-18T06:48:23.187Z,99558.41
2018-05-18T06:50:50.764Z,99562.88
2018-05-18T06:53:18.338Z,99558.35
2018-05-18T06:55:46.110Z,99557.40
2018-05-18T06:58:13.709Z,99560.78
2018-05-18T07:00:41.294Z,99556.98
2018-05-18T07:03:09.227Z,99559.18
2018-05-18T07:05:36.841Z,99557.31
2018-05-18T07:08:04.477Z,99558.92
2018-05-18T07:10:32.618Z,99554.05
2018-05-18T07:13:00.248Z,99547.30
2018-05-18T07:15:27.872Z,99545.33
2018-05-18T07:17:55.680Z,99547.42
2018-05-18T07:20:23.298Z,99547.30
2018-05-18T07:22:50.876Z,99551.55
2018-05-18T07:25:18.699Z,99549.02
2018-05-18T07:27:46.324Z,99542.66
2018-05-18T07:30:13.918Z,99542.98
2018-05-18T07:32:41.911Z,99541.69
2018-05-18T07:35:09.532Z,99532.54
2018-05-18T07:37:37.137Z,99529.94
2018-05-18T07:40:05.083Z,99527.29
2018-05-18T07:42:32.745Z,99527.94
2018-05-18T07:45:00.490Z,99536.03
2018-05-18T07:47:28.275Z,99531.47
2018-05-18T07:49:55.889Z,99533.41
2018-05-18T07:52:23.471Z,99533.70
2018-05-18T07:54:51.275Z,99523.52
2018-05-18T07:57:18.854Z,99524.19
2018-05-18T07:59:46.412Z,99524.59
2018-05-18T08:02:14.042Z,99525.47
2018-05-18T08:04:41.665Z,99526.45
2018-05-18T08:07:09.290Z,99527.86
2018-05-18T08:09:37.210Z,99523.09
2018-05-18T08:12:04.789Z,99526.91
2018-05-18T08:14:32.368Z,99521.28
2018-05-18T08:17:00.880Z,99523.81
2018-05-18T08:19:28.605Z,99517.68
2018-05-18T08:21:56.209Z,99509.64
2018-05-18T08:24:23.833Z,99514.00
2018-05-18T08:27:03.083Z,99511.73
2018-05-18T08:29:35.158Z,99503.31
2018-05-18T08:32:02.760Z,99509.52
2018-05-18T08:34:30.390Z,99507.39
2018-05-18T08:36:58.187Z,99510.39
2018-05-18T08:39:25.798Z,99515.72
2018-05-18T08:41:53.441Z,99508.88
2018-05-18T08:44:21.208Z,99502.30
2018-05-18T08:46:48.824Z,99501.63
2018-05-18T08:49:16.411Z,99504.08
2018-05-18T08:51:44.084Z,99497.80
2018-05-18T08:54:11.709Z,99509.72
2018-05-18T08:56:39.257Z,99505.29
2018-05-18T08:59:06.885Z,99508.13
2018-05-18T09:01:34.478Z,99509.30
2018-05-18T09:04:02.095Z,99502.67
2018-05-18T09:06:30.166Z,99498.73
2018-05-18T09:08:57.837Z,99497.11
2018-05-18T09:11:25.424Z,99493.69
2018-05-18T09:13:53.200Z,99487.73
2018-05-18T09:16:20.796Z,99487.48
2018-05-18T09:18:48.370Z,99486.89
2018-05-18T09:21:16.002Z,99487.81
2018-05-18T09:23:44.144Z,99479.40
2018-05-18T09:26:11.764Z,99474.80
2018-05-18T09:28:39.412Z,99474.42
2018-05-18T09:31:07.004Z,99471.52
2018-05-18T09:33:34.618Z,99467.52
2018-05-18T09:36:02.253Z,99472.72
2018-05-18T09:38:29.871Z,99462.63
2018-05-18T09:40:57.477Z,99466.97
2018-05-18T09:43:25.084Z,99457.39
2018-05-18T09:45:52.676Z,99466.08
2018-05-18T09:48:20.260Z,99459.25
2018-05-18T09:50:47.868Z,99457.03
2018-05-18T09:53:15.446Z,99443.70
2018-05-18T09:55:43.047Z,99443.48
2018-05-18T09:58:10.852Z,99439.95
2018-05-18T10:00:38.518Z,99438.93
2018-05-18T10:03:06.136Z,99434.59
2018-05-18T10:05:33.783Z,99429.25
2018-05-18T10:08:01.395Z,99427.73
2018-05-18T10:10:28.964Z,99426.16
2018-05-18T10:12:56.909Z,99422.22
2018-05-18T10:15:24.490Z,99418.14
2018-05-18T10:17:52.076Z,99413.20
2018-05-18T10:20:20.024Z,99413.81
2018-05-18T10:22:47.603Z,99417.00
2018-05-18T10:25:15.259Z,99410.62
2018-05-18T10:27:42.884Z,99412.77
2018-05-18T10:30:10.497Z,99404.13
2018-05-18T10:32:38.084Z,99404.08
2018-05-18T10:35:05.695Z,99390.74
2018-05-18T10:37:33.276Z,99386.54
2018-05-18T10:40:00.845Z,99380.96
2018-05-18T10:42:28.612Z,99376.19
2018-05-18T10:44:56.189Z,99377.22
2018-05-18T10:47:23.784Z,99370.64
2018-05-18T10:49:52.325Z,99373.89
2018-05-18T10:52:19.900Z,99373.06
2018-05-18T10:54:47.478Z,99367.38
2018-05-18T10:57:15.135Z,99361.99
2018-05-18T10:59:42.746Z,99363.89
2018-05-18T11:02:10.314Z,99362.22
2018-05-18T11:04:38.076Z,99358.26
2018-05-18T11:07:06.595Z,99354.02
2018-05-18T11:09:34.179Z,99339.09
2018-05-18T11:12:01.839Z,99338.45
2018-05-18T11:14:29.440Z,99329.99
2018-05-18T11:16:57.034Z,99327.80
2018-05-18T11:19:24.844Z,99331.34
2018-05-18T11:21:52.449Z,99323.88
2018-05-18T11:24:20.039Z,99317.37
2018-05-18T11:26:47.665Z,99319.93
2018-05-18T11:29:15.253Z,99316.90
2018-05-18T11:31:42.851Z,99317.94
2018-05-18T11:34:10.859Z,99310.02
2018-05-18T11:36:38.447Z,99311.59
2018-05-18T11:39:06.183Z,99306.79
2018-05-18T11:41:34.157Z,99296.12
2018-05-18T11:44:01.740Z,99294.89
2018-05-18T11:46:29.346Z,99292.98
2018-05-18T11:48:57.292Z,99283.72
2018-05-18T11:51:24.923Z,99287.35
2018-05-18T11:53:52.529Z,99280.34
2018-05-18T11:56:20.341Z,99276.66
2018-05-18T11:58:47.920Z,99279.53
2018-05-18T12:01:15.505Z,99265.94
2018-05-18T12:03:43.437Z,99265.53
2018-05-18T12:06:11.032Z,99259.84
2018-05-18T12:08:38.626Z,99259.70
2018-05-18T12:11:06.327Z,99257.38
2018-05-18T12:13:33.969Z,99254.07
2018-05-18T12:16:01.551Z,99253.75
2018-05-18T12:18:29.314Z,99253.66
2018-05-18T12:20:56.916Z,99254.58
2018-05-18T12:23:24.508Z,99254.70
2018-05-18T12:25:52.272Z,99250.30
2018-05-18T12:28:19.902Z,99249.64
2018-05-18T12:30:47.489Z,99244.98
2018-05-18T12:33:15.125Z,99244.08
2018-05-18T12:35:42.726Z,99239.84
2018-05-18T12:38:10.364Z,99235.92
2018-05-18T12:40:37.939Z,99233.99
2018-05-18T12:43:05.505Z,99229.92
2018-05-18T12:45:33.104Z,99228.14
2018-05-18T12:48:00.731Z,99221.33
2018-05-18T12:50:28.321Z,99217.16
2018-05-18T12:52:55.959Z,99216.68
2018-05-18T12:55:23.906Z,99214.39
2018-05-18T12:57:51.501Z,99207.70
2018-05-18T13:00:19.085Z,99206.23
2018-05-18T13:02:47.070Z,99212.09
2018-05-18T13:05:14.690Z,99207.45
2018-05-18T13:07:42.289Z,99210.83
2018-05-18T13:10:10.689Z,99217.25
2018-05-18T13:12:38.304Z,99211.28
2018-05-18T13:15:05.903Z,99214.77
2018-05-18T13:17:34.069Z,99211.22
2018-05-18T13:20:01.647Z,99203.31
2018-05-18T13:22:29.244Z,99211.88
2018-05-18T13:24:57.337Z,99197.00
2018-05-18T13:27:24.871Z,99188.55
2018-05-18T13:29:56.343Z,99190.25
2018-05-18T13:32:23.982Z,99183.88
2018-05-18T13:34:51.637Z,99182.75
2018-05-18T13:37:19.251Z,99190.02
2018-05-18T13:39:46.857Z,99192.52
2018-05-18T13:42:14.452Z,99182.69
2018-05-18T13:44:42.108Z,99185.89
2018-05-18T13:47:09.702Z,99175.38
2018-05-18T13:49:37.270Z,99182.34
2018-05-18T13:52:04.863Z,99178.16
2018-05-18T13:54:32.558Z,99177.22
2018-05-18T13:57:00.210Z,99167.19
2018-05-18T13:59:27.818Z,99169.70
2018-05-18T14:01:55.464Z,99167.92
2018-05-18T14:04:23.070Z,99170.53
2018-05-18T14:06:50.718Z,99164.80
2018-05-18T14:09:18.447Z,99150.64
2018-05-18T14:11:46.047Z,99151.97
2018-05-18T14:14:13.668Z,99159.95
2018-05-18T14:16:41.767Z,99158.22
2018-05-18T14:19:09.403Z,99153.98
2018-05-18T14:21:37.009Z,99164.25
2018-05-18T14:24:04.951Z,99156.49
2018-05-18T14:26:32.530Z,99154.48
2018-05-18T14:29:00.125Z,99154.88
2018-05-18T14:31:28.128Z,99161.38
2018-05-18T14:33:55.732Z,99153.61
2018-05-18T14:36:23.329Z,99150.22
2018-05-18T14:38:50.991Z,99151.76
2018-05-18T14:41:18.578Z,99155.17
2018-05-18T14:43:46.158Z,99151.09
2018-05-18T14:46:14.109Z,99148.17
2018-05-18T14:48:41.723Z,99154.30
2018-05-18T14:51:09.393Z,99146.35
2018-05-18T14:53:37.293Z,99146.98
2018-05-18T14:56:04.934Z,99143.17
2018-05-18T14:58:32.597Z,99140.59
2018-05-18T15:01:00.445Z,99130.67
2018-05-18T15:03:28.067Z,99121.02
2018-05-18T15:05:55.685Z,99117.99
2018-05-18T15:08:23.683Z,99119.05
2018-05-18T15:10:51.310Z,99118.54
2018-05-18T15:13:18.891Z,99113.84
2018-05-18T15:15:46.838Z,99116.78
2018-05-18T15:18:14.454Z,99111.33
2018-05-18T15:20:42.027Z,99114.16
2018-05-18T15:23:09.705Z,99118.59
2018-05-18T15:25:37.320Z,99114.11
2018-05-18T15:28:04.918Z,99114.92
2018-05-18T15:30:32.562Z,99115.66
2018-05-18T15:33:00.170Z,99119.22
2018-05-18T15:35:27.756Z,99115.72
2018-05-18T15:37:55.786Z,99122.63
2018-05-18T15:40:23.411Z,99120.09
2018-05-18T15:42:51.051Z,99126.28
2018-05-18T15:45:18.697Z,99115.47
2018-05-18T15:47:46.284Z,99120.14
2018-05-18T15:50:13.868Z,99112.78
2018-05-18T15:52:41.517Z,99114.32
2018-05-18T15:55:09.167Z,99118.30
2018-05-18T15:57:36.754Z,99113.59
2018-05-18T16:00:04.421Z,99116.83
2018-05-18T16:02:32.032Z,99115.08
2018-05-18T16:04:59.665Z,99122.00
2018-05-18T16:07:27.526Z,99123.39
2018-05-18T16:09:55.112Z,99119.81
2018-05-18T16:12:22.822Z,99119.65
2018-05-18T16:14:50.788Z,99131.07
2018-05-18T16:17:18.396Z,99130.72
2018-05-18T16:19:46.015Z,99137.14
2018-05-18T16:22:14.465Z,99130.20
2018-05-18T16:24:42.061Z,99128.88
2018-05-18T16:27:09.664Z,99126.32
2018-05-18T16:29:37.746Z,99123.47
2018-05-18T16:32:05.341Z,99120.47
2018-05-18T16:34:33.020Z,99111.33
2018-05-18T16:37:01.021Z,99120.25
2018-05-18T16:39:28.646Z,99110.80
2018-05-18T16:41:56.349Z,99110.69
2018-05-18T16:44:23.983Z,99103.84
2018-05-18T16:46:51.584Z,99097.25
2018-05-18T16:49:19.188Z,99099.78
2018-05-18T16:51:46.970Z,99094.24
2018-05-18T16:54:14.585Z,99089.64
2018-05-18T16:56:42.169Z,99089.69
2018-05-18T16:59:10.155Z,99083.10
2018-05-18T17:01:37.765Z,99086.66
2018-05-18T17:04:05.370Z,99080.64
2018-05-18T17:06:33.464Z,99078.31
2018-05-18T17:09:01.052Z,99082.81
2018-05-18T17:11:29.191Z,99084.96
2018-05-18T17:13:57.245Z,99084.44
2018-05-18T17:16:24.858Z,99094.42
2018-05-18T17:18:52.585Z,99084.09
2018-05-18T17:21:20.383Z,99092.91
2018-05-18T17:23:47.983Z,99095.68
2018-05-18T17:26:15.633Z,99097.73
2018-05-18T17:28:43.470Z,99096.91
2018-05-18T17:31:11.065Z,99099.51
2018-05-18T17:33:38.672Z,99103.44
2018-05-18T17:36:06.608Z,99103.89
2018-05-18T17:38:34.278Z,99097.93
2018-05-18T17:41:01.874Z,99088.37
2018-05-18T17:43:29.515Z,99085.92
2018-05-18T17:45:57.162Z,99091.84
2018-05-18T17:48:24.769Z,99105.28
2018-05-18T17:50:52.428Z,99110.94
2018-05-18T17:53:20.189Z,99126.19
2018-05-18T17:55:47.868Z,99163.84
2018-05-18T17:58:16.225Z,99193.09
2018-05-18T18:00:43.850Z,99226.79
2018-05-18T18:03:11.410Z,99229.06
2018-05-18T18:05:39.270Z,99210.86
2018-05-18T18:08:06.797Z,99251.86
2018-05-18T18:10:34.389Z,99230.38
2018-05-18T18:13:02.054Z,99241.00
2018-05-18T18:15:29.637Z,99244.88
2018-05-18T18:17:57.224Z,99262.84
2018-05-18T18:20:25.781Z,99238.92
2018-05-18T18:22:53.375Z,99197.08
2018-05-18T18:25:20.988Z,99197.94
2018-05-18T18:27:48.797Z,99197.22
2018-05-18T18:30:16.396Z,99195.34
2018-05-18T18:32:43.982Z,99198.23
2018-05-18T18:35:11.764Z,99198.83
2018-05-18T18:37:39.336Z,99207.16
2018-05-18T18:40:06.967Z,99212.02
2018-05-18T18:42:34.597Z,99209.60
2018-05-18T18:45:02.225Z,99217.77
2018-05-18T18:47:29.784Z,99227.30
2018-05-18T18:49:57.384Z,99235.45
2018-05-18T18:52:25.013Z,99247.93
2018-05-18T18:54:52.594Z,99251.36
2018-05-18T18:57:20.519Z,99249.11
2018-05-18T18:59:48.113Z,99258.48
2018-05-18T19:02:15.715Z,99258.21
2018-05-18T19:04:43.739Z,99256.66
2018-05-18T19:07:11.342Z,99260.11
2018-05-18T19:09:38.936Z,99266.73
2018-05-18T19:12:06.565Z,99274.41
2018-05-18T19:14:34.150Z,99278.97
2018-05-18T19:17:01.733Z,99278.05
2018-05-18T19:19:29.356Z,99280.73
2018-05-18T19:21:56.966Z,99286.38
2018-05-18T19:24:24.542Z,99300.28
2018-05-18T19:26:52.568Z,99307.59
2018-05-18T19:29:20.168Z,99315.78
2018-05-18T19:31:47.767Z,99325.01
2018-05-18T19:34:15.880Z,99314.16
2018-05-18T19:36:43.485Z,99308.00
2018-05-18T19:39:11.093Z,99314.50
2018-05-18T19:41:38.862Z,99311.48
2018-05-18T19:44:06.458Z,99296.91
2018-05-18T19:46:34.043Z,99300.27
2018-05-18T19:49:01.664Z,99297.45
2018-05-18T19:51:29.353Z,99292.58
2018-05-18T19:53:57.032Z,99294.36
2018-05-18T19:56:24.859Z,99288.72
2018-05-18T19:58:52.584Z,99286.81
2018-05-18T20:01:20.196Z,99281.23
2018-05-18T20:03:47.963Z,99279.63
2018-05-18T20:06:15.540Z,99277.50
2018-05-18T20:08:43.252Z,99278.02
2018-05-18T20:11:11.976Z,99283.63
2018-05-18T20:13:39.579Z,99293.16
2018-05-18T20:16:07.185Z,99297.66
2018-05-18T20:18:34.871Z,99309.84
2018-05-18T20:21:02.583Z,99318.79
2018-05-18T20:23:30.159Z,99333.87
2018-05-18T20:25:58.164Z,99334.58
2018-05-18T20:28:25.903Z,99345.08
2018-05-18T20:30:53.599Z,99345.50
2018-05-18T20:33:21.204Z,99352.49
2018-05-18T20:35:48.844Z,99348.55
2018-05-18T20:38:16.537Z,99355.42
2018-05-18T20:40:44.582Z,99352.94
2018-05-18T20:43:12.245Z,99357.98
2018-05-18T20:45:39.896Z,99360.59
2018-05-18T20:48:07.651Z,99364.38
2018-05-18T20:50:35.234Z,99362.61
2018-05-18T20:53:02.871Z,99357.69
2018-05-18T20:55:31.052Z,99361.66
2018-05-18T20:57:58.648Z,99362.37
2018-05-18T21:00:26.769Z,99358.00
2018-05-18T21:02:54.600Z,99363.95
2018-05-18T21:05:22.227Z,99367.19
2018-05-18T21:07:49.873Z,99360.22
2018-05-18T21:10:17.548Z,99363.36
2018-05-18T21:12:45.189Z,99365.08
2018-05-18T21:15:12.823Z,99363.92
2018-05-18T21:17:40.551Z,99365.56
2018-05-18T21:20:08.187Z,99364.30
2018-05-18T21:22:35.788Z,99366.23
2018-05-18T21:25:03.584Z,99366.59
2018-05-18T21:27:31.174Z,99360.11
2018-05-18T21:29:58.810Z,99362.59
2018-05-18T21:32:26.988Z,99368.92
2018-05-18T21:34:54.571Z,99368.43
2018-05-18T21:37:22.149Z,99361.48
2018-05-18T21:39:49.996Z,99364.33
2018-05-18T21:42:17.701Z,99357.98
2018-05-18T21:44:45.341Z,99357.62
2018-05-18T21:47:13.044Z,99360.52
2018-05-18T21:49:40.683Z,99358.72
2018-05-18T21:52:08.316Z,99352.08
2018-05-18T21:54:36.378Z,99356.94
2018-05-18T21:57:04.111Z,99353.65
2018-05-18T21:59:31.720Z,99356.48
2018-05-18T22:01:59.600Z,99354.64
2018-05-18T22:04:27.256Z,99350.22
2018-05-18T22:06:54.907Z,99354.28
2018-05-18T22:09:22.607Z,99353.41
2018-05-18T22:11:50.236Z,99353.79
2018-05-18T22:14:17.945Z,99351.89
2018-05-18T22:16:46.025Z,99350.20
2018-05-18T22:19:13.603Z,99346.96
2018-05-18T22:21:41.252Z,99349.28
2018-05-18T22:24:08.976Z,99354.12
2018-05-18T22:26:36.574Z,99341.89
2018-05-18T22:29:04.253Z,99343.30
2018-05-18T22:31:32.063Z,99343.58
2018-05-18T22:33:59.770Z,99335.69
2018-05-18T22:36:27.437Z,99331.46
2018-05-18T22:38:55.119Z,99321.44
2018-05-18T22:41:22.730Z,99319.63
2018-05-18T22:43:50.427Z,99320.03
2018-05-18T22:46:18.271Z,99317.90
2018-05-18T22:48:45.957Z,99307.39
2018-05-18T22:51:13.557Z,99301.94
2018-05-18T22:53:41.461Z,99314.05
2018-05-18T22:56:09.100Z,99314.23
2018-05-18T22:58:36.669Z,99309.83
2018-05-18T23:01:04.457Z,99312.53
2018-05-18T23:03:32.107Z,99321.17
2018-05-18T23:05:59.734Z,99328.93
2018-05-18T23:08:27.895Z,99331.81
2018-05-18T23:10:55.475Z,99334.02
2018-05-18T23:13:23.130Z,99341.50
2018-05-18T23:15:51.002Z,99352.83
2018-05-18T23:18:18.661Z,99370.74
2018-05-18T23:20:46.341Z,99375.23
2018-05-18T23:23:14.488Z,99385.77
2018-05-18T23:25:42.170Z,99390.00
2018-05-18T23:28:09.729Z,99396.40
2018-05-18T23:30:37.415Z,99396.71
2018-05-18T23:33:05.004Z,99380.98
2018-05-18T23:35:32.703Z,99380.55
2018-05-18T23:38:00.417Z,99378.40
2018-05-18T23:40:28.032Z,99379.33
2018-05-18T23:42:55.659Z,99379.53
2018-05-18T23:45:23.468Z,99378.42
2018-05-18T23:47:51.172Z,99376.75
2018-05-18T23:50:18.922Z,99376.86
2018-05-18T23:52:46.546Z,99370.83
2018-05-18T23:55:14.164Z,99359.72
2018-05-18T23:57:41.783Z,99357.05
